sensor_id;sensor_type;location;lat;lon;timestamp;temperature;humidity
11242;DHT22;5678;52.370;9.006;2023-02-18T00:01:27;6.60;99.90
11242;DHT22;5678;52.370;9.006;2023-02-18T00:03:56;6.70;99.90
11242;DHT22;5678;52.370;9.006;2023-02-18T00:06:30;6.60;99.90
11242;DHT22;5678;52.370;9.006;2023-02-18T00:08:58;6.70;99.90
11242;DHT22;5678;52.370;9.006;2023-02-18T00:11:29;6.60;99.90
11242;DHT22;5678;52.370;9.006;2023-02-18T00:14:01;6.60;99.90
11242;DHT22;5678;52.370;9.006;2023-02-18T00:16:30;7.10;99.90
11242;DHT22;5678;52.370;9.006;2023-02-18T00:18:59;7.00;99.90
11242;DHT22;5678;52.370;9.006;2023-02-18T00:21:28;6.50;99.90
11242;DHT22;5678;52.370;9.006;2023-02-18T00:23:56;7.50;99.90
11242;DHT22;5678;52.370;9.006;2023-02-18T00:26:24;6.40;99.90
11242;DHT22;5678;52.370;9.006;2023-02-18T00:28:53;6.40;99.90
11242;DHT22;5678;52.370;9.006;2023-02-18T00:31:24;6.50;99.90
11242;DHT22;5678;52.370;9.006;2023-02-18T00:33:53;6.30;99.90
11242;DHT22;5678;52.370;9.006;2023-02-18T00:36:22;6.30;99.90
11242;DHT22;5678;52.370;9.006;2023-02-18T00:38:52;6.60;99.90
11242;DHT22;5678;52.370;9.006;2023-02-18T00:41:22;6.30;99.90
11242;DHT22;5678;52.370;9.006;2023-02-18T00:43:50;6.30;99.90
11242;DHT22;5678;52.370;9.006;2023-02-18T00:46:19;6.30;99.90
11242;DHT22;5678;52.370;9.006;2023-02-18T00:48:48;6.70;99.90
11242;DHT22;5678;52.370;9.006;2023-02-18T00:51:17;6.90;99.90
11242;DHT22;5678;52.370;9.006;2023-02-18T00:53:45;6.50;99.90
11242;DHT22;5678;52.370;9.006;2023-02-18T00:56:13;6.10;99.90
11242;DHT22;5678;52.370;9.006;2023-02-18T00:58:41;6.60;99.90
11242;DHT22;5678;52.370;9.006;2023-02-18T01:01:10;6.70;99.90
11242;DHT22;5678;52.370;9.006;2023-02-18T01:03:39;7.00;99.90
11242;DHT22;5678;52.370;9.006;2023-02-18T01:06:10;6.10;99.90
11242;DHT22;5678;52.370;9.006;2023-02-18T01:08:39;6.20;99.90
11242;DHT22;5678;52.370;9.006;2023-02-18T01:11:08;6.80;99.90
11242;DHT22;5678;52.370;9.006;2023-02-18T01:13:37;7.10;99.90
11242;DHT22;5678;52.370;9.006;2023-02-18T01:16:06;7.20;99.90
11242;DHT22;5678;52.370;9.006;2023-02-18T01:18:35;6.40;99.90
11242;DHT22;5678;52.370;9.006;2023-02-18T01:21:04;6.50;99.90
11242;DHT22;5678;52.370;9.006;2023-02-18T01:23:35;7.10;99.90
11242;DHT22;5678;52.370;9.006;2023-02-18T01:26:04;6.60;99.90
11242;DHT22;5678;52.370;9.006;2023-02-18T01:28:33;6.60;99.90
11242;DHT22;5678;52.370;9.006;2023-02-18T01:31:04;6.60;99.90
11242;DHT22;5678;52.370;9.006;2023-02-18T01:33:34;6.60;99.90
11242;DHT22;5678;52.370;9.006;2023-02-18T01:36:02;6.70;99.90
11242;DHT22;5678;52.370;9.006;2023-02-18T01:38:30;6.70;99.90
11242;DHT22;5678;52.370;9.006;2023-02-18T01:40:59;6.70;99.90
11242;DHT22;5678;52.370;9.006;2023-02-18T01:43:28;6.70;99.90
11242;DHT22;5678;52.370;9.006;2023-02-18T01:46:14;6.80;99.90
11242;DHT22;5678;52.370;9.006;2023-02-18T01:48:45;6.80;99.90
11242;DHT22;5678;52.370;9.006;2023-02-18T01:51:18;7.00;99.90
11242;DHT22;5678;52.370;9.006;2023-02-18T01:53:51;6.80;99.90
11242;DHT22;5678;52.370;9.006;2023-02-18T01:56:28;6.80;99.90
11242;DHT22;5678;52.370;9.006;2023-02-18T01:59:00;8.00;99.90
11242;DHT22;5678;52.370;9.006;2023-02-18T02:01:29;6.80;99.90
11242;DHT22;5678;52.370;9.006;2023-02-18T02:03:58;6.90;99.90
11242;DHT22;5678;52.370;9.006;2023-02-18T02:06:26;6.80;99.90
11242;DHT22;5678;52.370;9.006;2023-02-18T02:08:56;6.80;99.90
11242;DHT22;5678;52.370;9.006;2023-02-18T02:11:39;6.80;99.90
11242;DHT22;5678;52.370;9.006;2023-02-18T02:14:19;6.80;99.90
11242;DHT22;5678;52.370;9.006;2023-02-18T02:16:54;6.80;99.90
11242;DHT22;5678;52.370;9.006;2023-02-18T02:32:03;7.10;99.90
11242;DHT22;5678;52.370;9.006;2023-02-18T02:34:55;6.90;99.90
11242;DHT22;5678;52.370;9.006;2023-02-18T02:37:31;6.90;99.90
11242;DHT22;5678;52.370;9.006;2023-02-18T02:40:10;6.90;99.90
11242;DHT22;5678;52.370;9.006;2023-02-18T02:42:46;6.90;99.90
11242;DHT22;5678;52.370;9.006;2023-02-18T02:45:23;7.00;99.90
11242;DHT22;5678;52.370;9.006;2023-02-18T02:47:58;7.00;99.90
11242;DHT22;5678;52.370;9.006;2023-02-18T02:50:34;7.00;99.90
11242;DHT22;5678;52.370;9.006;2023-02-18T02:53:08;7.00;99.90
11242;DHT22;5678;52.370;9.006;2023-02-18T02:55:40;7.10;99.90
11242;DHT22;5678;52.370;9.006;2023-02-18T02:58:12;7.10;99.90
11242;DHT22;5678;52.370;9.006;2023-02-18T03:00:50;7.10;99.90
11242;DHT22;5678;52.370;9.006;2023-02-18T03:03:36;7.10;99.90
11242;DHT22;5678;52.370;9.006;2023-02-18T03:06:40;7.10;99.90
11242;DHT22;5678;52.370;9.006;2023-02-18T03:09:16;7.20;99.90
11242;DHT22;5678;52.370;9.006;2023-02-18T03:12:07;7.30;99.90
11242;DHT22;5678;52.370;9.006;2023-02-18T03:14:42;8.30;99.90
11242;DHT22;5678;52.370;9.006;2023-02-18T03:17:17;8.90;99.90
11242;DHT22;5678;52.370;9.006;2023-02-18T03:19:54;7.20;99.90
11242;DHT22;5678;52.370;9.006;2023-02-18T03:22:28;7.90;99.90
11242;DHT22;5678;52.370;9.006;2023-02-18T03:24:58;7.30;99.90
11242;DHT22;5678;52.370;9.006;2023-02-18T03:27:29;7.30;99.90
11242;DHT22;5678;52.370;9.006;2023-02-18T03:30:04;7.30;99.90
11242;DHT22;5678;52.370;9.006;2023-02-18T03:32:33;7.40;99.90
11242;DHT22;5678;52.370;9.006;2023-02-18T03:35:05;7.40;99.90
11242;DHT22;5678;52.370;9.006;2023-02-18T03:37:38;7.40;99.90
11242;DHT22;5678;52.370;9.006;2023-02-18T03:40:09;7.40;99.90
11242;DHT22;5678;52.370;9.006;2023-02-18T03:42:37;7.40;99.90
11242;DHT22;5678;52.370;9.006;2023-02-18T03:45:06;7.40;99.90
11242;DHT22;5678;52.370;9.006;2023-02-18T03:47:34;7.40;99.90
11242;DHT22;5678;52.370;9.006;2023-02-18T03:50:03;7.40;99.90
11242;DHT22;5678;52.370;9.006;2023-02-18T03:52:31;7.40;99.90
11242;DHT22;5678;52.370;9.006;2023-02-18T03:55:00;7.40;99.90
11242;DHT22;5678;52.370;9.006;2023-02-18T03:57:28;7.40;99.90
11242;DHT22;5678;52.370;9.006;2023-02-18T03:59:56;7.40;99.90
11242;DHT22;5678;52.370;9.006;2023-02-18T04:02:24;7.40;99.90
11242;DHT22;5678;52.370;9.006;2023-02-18T04:04:52;7.40;99.90
11242;DHT22;5678;52.370;9.006;2023-02-18T04:07:20;7.40;99.90
11242;DHT22;5678;52.370;9.006;2023-02-18T04:09:48;7.40;99.90
11242;DHT22;5678;52.370;9.006;2023-02-18T04:12:17;7.50;99.90
11242;DHT22;5678;52.370;9.006;2023-02-18T04:14:45;7.50;99.90
11242;DHT22;5678;52.370;9.006;2023-02-18T04:17:13;7.40;99.90
11242;DHT22;5678;52.370;9.006;2023-02-18T04:19:41;7.50;99.90
11242;DHT22;5678;52.370;9.006;2023-02-18T04:22:09;7.50;99.90
11242;DHT22;5678;52.370;9.006;2023-02-18T04:24:37;7.40;99.90
11242;DHT22;5678;52.370;9.006;2023-02-18T04:27:05;7.40;99.90
11242;DHT22;5678;52.370;9.006;2023-02-18T04:29:34;7.50;99.90
11242;DHT22;5678;52.370;9.006;2023-02-18T04:32:02;7.50;99.90
11242;DHT22;5678;52.370;9.006;2023-02-18T04:34:30;7.40;99.90
11242;DHT22;5678;52.370;9.006;2023-02-18T04:36:58;9.40;99.90
11242;DHT22;5678;52.370;9.006;2023-02-18T04:39:26;7.40;99.90
11242;DHT22;5678;52.370;9.006;2023-02-18T04:41:54;7.40;99.90
11242;DHT22;5678;52.370;9.006;2023-02-18T04:44:22;7.40;99.90
11242;DHT22;5678;52.370;9.006;2023-02-18T04:46:51;7.50;99.90
11242;DHT22;5678;52.370;9.006;2023-02-18T04:49:19;7.50;99.90
11242;DHT22;5678;52.370;9.006;2023-02-18T04:51:47;7.50;99.90
11242;DHT22;5678;52.370;9.006;2023-02-18T04:54:15;7.50;99.90
11242;DHT22;5678;52.370;9.006;2023-02-18T04:56:43;7.50;99.90
11242;DHT22;5678;52.370;9.006;2023-02-18T04:59:10;7.50;99.90
11242;DHT22;5678;52.370;9.006;2023-02-18T05:01:38;7.50;99.90
11242;DHT22;5678;52.370;9.006;2023-02-18T05:04:08;7.50;99.90
11242;DHT22;5678;52.370;9.006;2023-02-18T05:06:36;7.60;99.90
11242;DHT22;5678;52.370;9.006;2023-02-18T05:09:05;7.80;99.90
11242;DHT22;5678;52.370;9.006;2023-02-18T05:11:33;7.60;99.90
11242;DHT22;5678;52.370;9.006;2023-02-18T05:14:01;7.60;99.90
11242;DHT22;5678;52.370;9.006;2023-02-18T05:16:29;7.60;99.90
11242;DHT22;5678;52.370;9.006;2023-02-18T05:18:57;7.70;99.90
11242;DHT22;5678;52.370;9.006;2023-02-18T05:21:26;7.70;99.90
11242;DHT22;5678;52.370;9.006;2023-02-18T05:23:54;7.70;99.90
11242;DHT22;5678;52.370;9.006;2023-02-18T05:26:22;7.70;99.90
11242;DHT22;5678;52.370;9.006;2023-02-18T05:28:50;7.80;99.90
11242;DHT22;5678;52.370;9.006;2023-02-18T05:31:18;7.80;99.90
11242;DHT22;5678;52.370;9.006;2023-02-18T05:33:46;7.80;99.90
11242;DHT22;5678;52.370;9.006;2023-02-18T05:36:14;7.80;99.90
11242;DHT22;5678;52.370;9.006;2023-02-18T05:38:43;7.80;99.90
11242;DHT22;5678;52.370;9.006;2023-02-18T05:41:11;7.80;99.90
11242;DHT22;5678;52.370;9.006;2023-02-18T05:43:39;7.80;99.90
11242;DHT22;5678;52.370;9.006;2023-02-18T05:46:21;7.80;99.90
11242;DHT22;5678;52.370;9.006;2023-02-18T05:48:49;7.90;99.90
11242;DHT22;5678;52.370;9.006;2023-02-18T05:51:17;7.80;99.90
11242;DHT22;5678;52.370;9.006;2023-02-18T05:53:46;8.00;99.90
11242;DHT22;5678;52.370;9.006;2023-02-18T05:56:14;7.90;99.90
11242;DHT22;5678;52.370;9.006;2023-02-18T05:58:42;7.80;99.90
11242;DHT22;5678;52.370;9.006;2023-02-18T06:01:10;8.30;99.90
11242;DHT22;5678;52.370;9.006;2023-02-18T06:03:38;9.20;99.90
11242;DHT22;5678;52.370;9.006;2023-02-18T06:06:06;7.90;99.90
11242;DHT22;5678;52.370;9.006;2023-02-18T06:08:35;8.10;99.90
11242;DHT22;5678;52.370;9.006;2023-02-18T06:11:04;7.90;99.90
11242;DHT22;5678;52.370;9.006;2023-02-18T06:13:32;7.90;99.90
11242;DHT22;5678;52.370;9.006;2023-02-18T06:16:00;7.90;99.90
11242;DHT22;5678;52.370;9.006;2023-02-18T06:18:28;7.90;99.90
11242;DHT22;5678;52.370;9.006;2023-02-18T06:20:56;7.90;99.90
11242;DHT22;5678;52.370;9.006;2023-02-18T06:23:24;8.00;99.90
11242;DHT22;5678;52.370;9.006;2023-02-18T06:25:52;8.00;99.90
11242;DHT22;5678;52.370;9.006;2023-02-18T06:28:21;8.00;99.90
11242;DHT22;5678;52.370;9.006;2023-02-18T06:30:49;8.00;99.90
11242;DHT22;5678;52.370;9.006;2023-02-18T06:33:17;8.00;99.90
11242;DHT22;5678;52.370;9.006;2023-02-18T06:35:52;8.00;99.90
11242;DHT22;5678;52.370;9.006;2023-02-18T06:38:21;8.10;99.90
11242;DHT22;5678;52.370;9.006;2023-02-18T06:40:49;8.00;99.90
11242;DHT22;5678;52.370;9.006;2023-02-18T06:43:17;8.10;99.90
11242;DHT22;5678;52.370;9.006;2023-02-18T06:45:46;8.10;99.90
11242;DHT22;5678;52.370;9.006;2023-02-18T06:48:14;8.20;99.90
11242;DHT22;5678;52.370;9.006;2023-02-18T06:50:42;8.20;99.90
11242;DHT22;5678;52.370;9.006;2023-02-18T06:53:11;8.20;99.90
11242;DHT22;5678;52.370;9.006;2023-02-18T06:55:39;8.30;99.90
11242;DHT22;5678;52.370;9.006;2023-02-18T06:58:08;8.40;99.90
11242;DHT22;5678;52.370;9.006;2023-02-18T07:00:37;8.40;99.90
11242;DHT22;5678;52.370;9.006;2023-02-18T07:03:06;8.50;99.90
11242;DHT22;5678;52.370;9.006;2023-02-18T07:05:34;8.60;99.90
11242;DHT22;5678;52.370;9.006;2023-02-18T07:08:03;9.40;99.90
11242;DHT22;5678;52.370;9.006;2023-02-18T07:10:30;8.80;99.90
11242;DHT22;5678;52.370;9.006;2023-02-18T07:12:58;8.90;99.90
11242;DHT22;5678;52.370;9.006;2023-02-18T07:15:26;8.90;99.90
11242;DHT22;5678;52.370;9.006;2023-02-18T07:17:54;9.00;99.90
11242;DHT22;5678;52.370;9.006;2023-02-18T07:20:24;9.00;99.90
11242;DHT22;5678;52.370;9.006;2023-02-18T07:22:52;9.30;99.90
11242;DHT22;5678;52.370;9.006;2023-02-18T07:25:21;9.10;99.90
11242;DHT22;5678;52.370;9.006;2023-02-18T07:27:49;9.10;99.90
11242;DHT22;5678;52.370;9.006;2023-02-18T07:30:17;9.10;99.90
11242;DHT22;5678;52.370;9.006;2023-02-18T07:32:46;9.20;99.90
11242;DHT22;5678;52.370;9.006;2023-02-18T07:35:15;9.20;99.90
11242;DHT22;5678;52.370;9.006;2023-02-18T07:37:46;9.20;99.90
11242;DHT22;5678;52.370;9.006;2023-02-18T07:40:16;10.50;99.90
11242;DHT22;5678;52.370;9.006;2023-02-18T07:42:44;9.30;99.90
11242;DHT22;5678;52.370;9.006;2023-02-18T07:45:12;9.80;99.90
11242;DHT22;5678;52.370;9.006;2023-02-18T07:47:40;9.30;99.90
11242;DHT22;5678;52.370;9.006;2023-02-18T07:50:09;9.30;99.90
11242;DHT22;5678;52.370;9.006;2023-02-18T07:52:37;9.40;99.90
11242;DHT22;5678;52.370;9.006;2023-02-18T07:55:07;9.40;99.90
11242;DHT22;5678;52.370;9.006;2023-02-18T07:57:35;9.40;99.90
11242;DHT22;5678;52.370;9.006;2023-02-18T08:00:23;9.40;99.90
11242;DHT22;5678;52.370;9.006;2023-02-18T08:02:51;9.40;99.90
11242;DHT22;5678;52.370;9.006;2023-02-18T08:05:19;9.50;99.90
11242;DHT22;5678;52.370;9.006;2023-02-18T08:07:47;9.50;99.90
11242;DHT22;5678;52.370;9.006;2023-02-18T08:10:16;9.50;99.90
11242;DHT22;5678;52.370;9.006;2023-02-18T08:12:44;9.60;99.90
11242;DHT22;5678;52.370;9.006;2023-02-18T08:15:12;9.60;99.90
11242;DHT22;5678;52.370;9.006;2023-02-18T08:17:40;9.60;99.90
11242;DHT22;5678;52.370;9.006;2023-02-18T08:20:08;9.60;99.90
11242;DHT22;5678;52.370;9.006;2023-02-18T08:22:37;9.60;99.90
11242;DHT22;5678;52.370;9.006;2023-02-18T08:25:05;9.70;99.90
11242;DHT22;5678;52.370;9.006;2023-02-18T08:27:38;9.70;99.90
11242;DHT22;5678;52.370;9.006;2023-02-18T08:30:07;10.40;99.90
11242;DHT22;5678;52.370;9.006;2023-02-18T08:32:36;9.70;99.90
11242;DHT22;5678;52.370;9.006;2023-02-18T08:35:04;9.70;99.90
11242;DHT22;5678;52.370;9.006;2023-02-18T08:37:33;9.70;99.90
11242;DHT22;5678;52.370;9.006;2023-02-18T08:40:20;10.00;99.90
11242;DHT22;5678;52.370;9.006;2023-02-18T08:42:49;9.70;99.90
11242;DHT22;5678;52.370;9.006;2023-02-18T08:45:17;9.80;99.90
11242;DHT22;5678;52.370;9.006;2023-02-18T08:47:45;10.90;99.90
11242;DHT22;5678;52.370;9.006;2023-02-18T08:50:33;9.80;99.90
11242;DHT22;5678;52.370;9.006;2023-02-18T08:53:01;9.80;99.90
11242;DHT22;5678;52.370;9.006;2023-02-18T08:55:30;9.90;99.90
11242;DHT22;5678;52.370;9.006;2023-02-18T08:58:00;9.90;99.90
11242;DHT22;5678;52.370;9.006;2023-02-18T09:00:28;9.90;99.90
11242;DHT22;5678;52.370;9.006;2023-02-18T09:02:55;9.90;99.90
11242;DHT22;5678;52.370;9.006;2023-02-18T09:05:23;9.90;99.90
11242;DHT22;5678;52.370;9.006;2023-02-18T09:07:51;10.00;99.90
11242;DHT22;5678;52.370;9.006;2023-02-18T09:10:19;10.00;99.90
11242;DHT22;5678;52.370;9.006;2023-02-18T09:12:47;10.00;99.90
11242;DHT22;5678;52.370;9.006;2023-02-18T09:15:17;10.10;99.90
11242;DHT22;5678;52.370;9.006;2023-02-18T09:17:45;10.10;99.90
11242;DHT22;5678;52.370;9.006;2023-02-18T09:20:13;10.10;99.90
11242;DHT22;5678;52.370;9.006;2023-02-18T09:22:41;10.10;99.90
11242;DHT22;5678;52.370;9.006;2023-02-18T09:25:09;10.10;99.90
11242;DHT22;5678;52.370;9.006;2023-02-18T09:27:37;10.10;99.90
11242;DHT22;5678;52.370;9.006;2023-02-18T09:30:06;11.30;99.90
11242;DHT22;5678;52.370;9.006;2023-02-18T09:32:35;10.10;99.90
11242;DHT22;5678;52.370;9.006;2023-02-18T09:35:04;10.10;99.90
11242;DHT22;5678;52.370;9.006;2023-02-18T09:37:32;10.10;99.90
11242;DHT22;5678;52.370;9.006;2023-02-18T09:39:59;10.10;99.90
11242;DHT22;5678;52.370;9.006;2023-02-18T09:42:31;10.10;99.90
11242;DHT22;5678;52.370;9.006;2023-02-18T09:45:01;11.10;99.90
11242;DHT22;5678;52.370;9.006;2023-02-18T09:47:33;10.10;99.90
11242;DHT22;5678;52.370;9.006;2023-02-18T09:50:06;10.10;99.90
11242;DHT22;5678;52.370;9.006;2023-02-18T09:52:36;10.20;99.90
11242;DHT22;5678;52.370;9.006;2023-02-18T09:55:18;10.30;99.90
11242;DHT22;5678;52.370;9.006;2023-02-18T09:57:49;10.30;99.90
11242;DHT22;5678;52.370;9.006;2023-02-18T10:00:20;10.40;99.90
11242;DHT22;5678;52.370;9.006;2023-02-18T10:02:54;10.30;99.90
11242;DHT22;5678;52.370;9.006;2023-02-18T10:05:26;10.30;99.90
11242;DHT22;5678;52.370;9.006;2023-02-18T10:07:57;10.30;99.90
11242;DHT22;5678;52.370;9.006;2023-02-18T10:10:36;10.30;99.90
11242;DHT22;5678;52.370;9.006;2023-02-18T10:13:09;10.30;99.90
11242;DHT22;5678;52.370;9.006;2023-02-18T10:15:40;10.30;99.90
11242;DHT22;5678;52.370;9.006;2023-02-18T10:18:20;10.20;99.90
11242;DHT22;5678;52.370;9.006;2023-02-18T10:20:51;10.20;99.90
11242;DHT22;5678;52.370;9.006;2023-02-18T10:23:20;10.30;99.90
11242;DHT22;5678;52.370;9.006;2023-02-18T10:25:49;10.30;99.90
11242;DHT22;5678;52.370;9.006;2023-02-18T10:28:20;10.30;99.90
11242;DHT22;5678;52.370;9.006;2023-02-18T10:30:54;10.30;99.90
11242;DHT22;5678;52.370;9.006;2023-02-18T10:33:32;10.40;99.90
11242;DHT22;5678;52.370;9.006;2023-02-18T10:36:11;10.40;99.90
11242;DHT22;5678;52.370;9.006;2023-02-18T10:38:56;10.30;99.90
11242;DHT22;5678;52.370;9.006;2023-02-18T10:41:32;10.30;99.90
11242;DHT22;5678;52.370;9.006;2023-02-18T10:44:07;10.30;99.90
11242;DHT22;5678;52.370;9.006;2023-02-18T10:46:42;10.30;99.90
11242;DHT22;5678;52.370;9.006;2023-02-18T10:49:29;10.50;99.90
11242;DHT22;5678;52.370;9.006;2023-02-18T10:52:02;10.30;99.90
11242;DHT22;5678;52.370;9.006;2023-02-18T10:54:49;10.30;99.90
11242;DHT22;5678;52.370;9.006;2023-02-18T10:57:18;10.30;99.90
11242;DHT22;5678;52.370;9.006;2023-02-18T10:59:55;10.30;99.90
11242;DHT22;5678;52.370;9.006;2023-02-18T11:02:25;10.30;99.90
11242;DHT22;5678;52.370;9.006;2023-02-18T11:04:56;10.30;99.90
11242;DHT22;5678;52.370;9.006;2023-02-18T11:07:31;10.40;99.90
11242;DHT22;5678;52.370;9.006;2023-02-18T11:10:06;10.50;99.90
11242;DHT22;5678;52.370;9.006;2023-02-18T11:12:43;10.50;99.90
11242;DHT22;5678;52.370;9.006;2023-02-18T11:15:18;10.60;99.90
11242;DHT22;5678;52.370;9.006;2023-02-18T11:17:47;10.60;99.90
11242;DHT22;5678;52.370;9.006;2023-02-18T11:20:23;10.60;99.90
11242;DHT22;5678;52.370;9.006;2023-02-18T11:22:59;10.70;99.90
11242;DHT22;5678;52.370;9.006;2023-02-18T11:25:40;11.90;99.90
11242;DHT22;5678;52.370;9.006;2023-02-18T11:28:25;10.70;99.90
11242;DHT22;5678;52.370;9.006;2023-02-18T11:30:57;10.70;99.90
11242;DHT22;5678;52.370;9.006;2023-02-18T11:33:32;10.60;99.90
11242;DHT22;5678;52.370;9.006;2023-02-18T11:36:15;10.60;99.90
11242;DHT22;5678;52.370;9.006;2023-02-18T11:38:49;10.60;99.90
11242;DHT22;5678;52.370;9.006;2023-02-18T11:41:19;10.60;99.90
11242;DHT22;5678;52.370;9.006;2023-02-18T11:43:50;10.60;99.90
11242;DHT22;5678;52.370;9.006;2023-02-18T11:46:21;11.10;99.90
11242;DHT22;5678;52.370;9.006;2023-02-18T11:48:50;10.50;99.90
11242;DHT22;5678;52.370;9.006;2023-02-18T11:51:20;10.40;99.90
11242;DHT22;5678;52.370;9.006;2023-02-18T11:53:56;10.40;99.90
11242;DHT22;5678;52.370;9.006;2023-02-18T11:56:27;10.40;99.90
11242;DHT22;5678;52.370;9.006;2023-02-18T11:58:56;10.30;99.90
11242;DHT22;5678;52.370;9.006;2023-02-18T12:01:34;10.30;99.90
11242;DHT22;5678;52.370;9.006;2023-02-18T12:04:10;10.30;99.90
11242;DHT22;5678;52.370;9.006;2023-02-18T12:06:44;10.20;99.90
11242;DHT22;5678;52.370;9.006;2023-02-18T12:09:23;10.10;99.90
11242;DHT22;5678;52.370;9.006;2023-02-18T12:11:56;11.10;99.90
11242;DHT22;5678;52.370;9.006;2023-02-18T12:14:26;10.00;99.90
11242;DHT22;5678;52.370;9.006;2023-02-18T12:22:57;9.90;99.90
11242;DHT22;5678;52.370;9.006;2023-02-18T12:25:39;9.90;99.90
11242;DHT22;5678;52.370;9.006;2023-02-18T12:28:19;9.90;99.90
11242;DHT22;5678;52.370;9.006;2023-02-18T12:31:03;9.90;99.90
11242;DHT22;5678;52.370;9.006;2023-02-18T12:33:41;9.90;99.90
11242;DHT22;5678;52.370;9.006;2023-02-18T12:36:19;9.90;99.90
11242;DHT22;5678;52.370;9.006;2023-02-18T12:39:05;10.70;99.90
11242;DHT22;5678;52.370;9.006;2023-02-18T12:41:51;9.90;99.90
11242;DHT22;5678;52.370;9.006;2023-02-18T12:44:32;9.90;99.90
11242;DHT22;5678;52.370;9.006;2023-02-18T12:47:16;9.90;99.90
11242;DHT22;5678;52.370;9.006;2023-02-18T12:50:10;9.90;99.90
11242;DHT22;5678;52.370;9.006;2023-02-18T12:52:45;10.00;99.90
11242;DHT22;5678;52.370;9.006;2023-02-18T12:55:34;10.00;99.90
11242;DHT22;5678;52.370;9.006;2023-02-18T12:58:21;10.30;99.90
11242;DHT22;5678;52.370;9.006;2023-02-18T13:04:18;10.90;99.90
11242;DHT22;5678;52.370;9.006;2023-02-18T13:07:18;10.10;99.90
11242;DHT22;5678;52.370;9.006;2023-02-18T13:10:11;10.10;99.90
11242;DHT22;5678;52.370;9.006;2023-02-18T13:12:49;10.10;99.90
11242;DHT22;5678;52.370;9.006;2023-02-18T13:15:24;10.10;99.90
11242;DHT22;5678;52.370;9.006;2023-02-18T13:17:57;10.10;99.90
11242;DHT22;5678;52.370;9.006;2023-02-18T13:20:34;10.40;99.90
11242;DHT22;5678;52.370;9.006;2023-02-18T13:23:03;10.10;99.90
11242;DHT22;5678;52.370;9.006;2023-02-18T13:25:36;10.10;99.90
11242;DHT22;5678;52.370;9.006;2023-02-18T13:28:11;10.10;99.90
11242;DHT22;5678;52.370;9.006;2023-02-18T13:30:47;10.10;99.90
11242;DHT22;5678;52.370;9.006;2023-02-18T13:33:21;10.10;99.90
11242;DHT22;5678;52.370;9.006;2023-02-18T13:35:53;10.10;99.90
11242;DHT22;5678;52.370;9.006;2023-02-18T13:38:52;10.10;99.90
11242;DHT22;5678;52.370;9.006;2023-02-18T13:41:21;10.40;99.90
11242;DHT22;5678;52.370;9.006;2023-02-18T13:43:49;10.10;99.90
11242;DHT22;5678;52.370;9.006;2023-02-18T13:46:19;10.00;99.90
11242;DHT22;5678;52.370;9.006;2023-02-18T13:48:49;10.00;99.90
11242;DHT22;5678;52.370;9.006;2023-02-18T13:51:28;11.00;99.90
11242;DHT22;5678;52.370;9.006;2023-02-18T13:54:01;9.90;99.90
11242;DHT22;5678;52.370;9.006;2023-02-18T13:56:32;11.10;99.90
11242;DHT22;5678;52.370;9.006;2023-02-18T13:59:08;9.90;99.90
11242;DHT22;5678;52.370;9.006;2023-02-18T14:01:42;9.80;99.90
11242;DHT22;5678;52.370;9.006;2023-02-18T14:04:48;9.80;99.90
11242;DHT22;5678;52.370;9.006;2023-02-18T14:07:43;9.80;99.90
11242;DHT22;5678;52.370;9.006;2023-02-18T14:10:29;9.80;99.90
11242;DHT22;5678;52.370;9.006;2023-02-18T14:13:19;9.90;99.90
11242;DHT22;5678;52.370;9.006;2023-02-18T14:15:54;9.90;99.90
11242;DHT22;5678;52.370;9.006;2023-02-18T14:18:33;10.00;99.90
11242;DHT22;5678;52.370;9.006;2023-02-18T14:21:04;10.00;99.90
11242;DHT22;5678;52.370;9.006;2023-02-18T14:23:56;10.00;99.90
11242;DHT22;5678;52.370;9.006;2023-02-18T14:26:29;9.90;99.90
11242;DHT22;5678;52.370;9.006;2023-02-18T14:29:03;10.00;99.90
11242;DHT22;5678;52.370;9.006;2023-02-18T14:31:35;10.00;99.90
11242;DHT22;5678;52.370;9.006;2023-02-18T14:34:26;9.90;99.90
11242;DHT22;5678;52.370;9.006;2023-02-18T14:37:07;10.00;99.90
11242;DHT22;5678;52.370;9.006;2023-02-18T14:39:46;10.00;99.90
11242;DHT22;5678;52.370;9.006;2023-02-18T14:42:26;10.00;99.90
11242;DHT22;5678;52.370;9.006;2023-02-18T14:45:17;10.00;99.90
11242;DHT22;5678;52.370;9.006;2023-02-18T14:48:02;10.00;99.90
11242;DHT22;5678;52.370;9.006;2023-02-18T14:50:37;10.00;99.90
11242;DHT22;5678;52.370;9.006;2023-02-18T14:53:12;10.00;99.90
11242;DHT22;5678;52.370;9.006;2023-02-18T14:55:46;10.00;99.90
11242;DHT22;5678;52.370;9.006;2023-02-18T14:58:24;10.00;99.90
11242;DHT22;5678;52.370;9.006;2023-02-18T15:00:53;10.80;99.90
11242;DHT22;5678;52.370;9.006;2023-02-18T15:03:21;11.90;99.90
11242;DHT22;5678;52.370;9.006;2023-02-18T15:05:52;10.00;99.90
11242;DHT22;5678;52.370;9.006;2023-02-18T15:08:20;10.00;99.90
11242;DHT22;5678;52.370;9.006;2023-02-18T15:10:51;10.00;99.90
11242;DHT22;5678;52.370;9.006;2023-02-18T15:13:23;10.00;99.90
11242;DHT22;5678;52.370;9.006;2023-02-18T15:15:54;12.00;99.90
11242;DHT22;5678;52.370;9.006;2023-02-18T15:18:27;10.00;99.90
11242;DHT22;5678;52.370;9.006;2023-02-18T15:20:59;10.00;99.90
11242;DHT22;5678;52.370;9.006;2023-02-18T15:23:28;10.00;99.90
11242;DHT22;5678;52.370;9.006;2023-02-18T15:25:57;11.00;99.90
11242;DHT22;5678;52.370;9.006;2023-02-18T15:28:28;9.90;99.90
11242;DHT22;5678;52.370;9.006;2023-02-18T15:30:58;9.90;99.90
11242;DHT22;5678;52.370;9.006;2023-02-18T15:33:26;11.00;99.90
11242;DHT22;5678;52.370;9.006;2023-02-18T15:36:02;9.90;99.90
11242;DHT22;5678;52.370;9.006;2023-02-18T15:38:30;10.10;99.90
11242;DHT22;5678;52.370;9.006;2023-02-18T15:40:59;9.90;99.90
11242;DHT22;5678;52.370;9.006;2023-02-18T15:43:28;9.90;99.90
11242;DHT22;5678;52.370;9.006;2023-02-18T15:45:57;9.90;99.90
11242;DHT22;5678;52.370;9.006;2023-02-18T15:48:31;9.90;99.90
11242;DHT22;5678;52.370;9.006;2023-02-18T15:51:05;9.90;99.90
11242;DHT22;5678;52.370;9.006;2023-02-18T15:53:45;9.90;99.90
11242;DHT22;5678;52.370;9.006;2023-02-18T15:56:20;9.90;99.90
11242;DHT22;5678;52.370;9.006;2023-02-18T15:58:56;9.90;99.90
11242;DHT22;5678;52.370;9.006;2023-02-18T16:01:34;9.90;99.90
11242;DHT22;5678;52.370;9.006;2023-02-18T16:04:05;9.90;99.90
11242;DHT22;5678;52.370;9.006;2023-02-18T16:06:38;9.90;99.90
11242;DHT22;5678;52.370;9.006;2023-02-18T16:09:13;9.90;99.90
11242;DHT22;5678;52.370;9.006;2023-02-18T16:11:44;9.80;99.90
11242;DHT22;5678;52.370;9.006;2023-02-18T16:14:23;9.80;99.90
11242;DHT22;5678;52.370;9.006;2023-02-18T16:17:08;9.80;99.90
11242;DHT22;5678;52.370;9.006;2023-02-18T16:19:47;9.90;99.90
11242;DHT22;5678;52.370;9.006;2023-02-18T16:22:35;9.80;99.90
11242;DHT22;5678;52.370;9.006;2023-02-18T16:25:13;9.80;99.90
11242;DHT22;5678;52.370;9.006;2023-02-18T16:27:52;9.80;99.90
11242;DHT22;5678;52.370;9.006;2023-02-18T16:30:22;9.80;99.90
11242;DHT22;5678;52.370;9.006;2023-02-18T16:32:51;9.70;99.90
11242;DHT22;5678;52.370;9.006;2023-02-18T16:35:21;9.70;99.90
11242;DHT22;5678;52.370;9.006;2023-02-18T16:37:52;9.70;99.90
11242;DHT22;5678;52.370;9.006;2023-02-18T16:40:26;9.70;99.90
11242;DHT22;5678;52.370;9.006;2023-02-18T16:42:56;9.70;99.90
11242;DHT22;5678;52.370;9.006;2023-02-18T16:45:31;9.60;99.90
11242;DHT22;5678;52.370;9.006;2023-02-18T16:48:00;9.60;99.90
11242;DHT22;5678;52.370;9.006;2023-02-18T16:50:32;9.60;99.90
11242;DHT22;5678;52.370;9.006;2023-02-18T16:53:01;9.60;99.90